Archiv-/Tagesdaten

--Timestamp---	Temp	Chill	HIndex	Humid	Dewpt	 Wind 	HiWind	WindDir	Rain 	Barom	Solar	 ET  	 UV 
--------------	----	-----	------	-----	-----	------	------	-------	-----	-----	-----	-----	----
20100716 00:00	20.6	20.6	20.6	84	17.8	0	0	-100000	0.0	1015.5	0	0.025	0.0
20100716 00:05	20.4	20.4	20.4	84	17.6	0	0	-100000	0.0	1015.4	0	0.000	0.0
20100716 00:10	20.4	20.4	20.4	85	17.8	0	0	-100000	0.0	1015.4	0	0.000	0.0
20100716 00:15	20.3	20.3	20.3	85	17.7	0	0	-100000	0.0	1015.4	0	0.000	0.0
20100716 00:20	20.2	20.2	20.2	85	17.6	0	0	-100000	0.0	1015.6	0	0.000	0.0
20100716 00:25	20.1	20.1	20.1	85	17.5	0	0	-100000	0.0	1015.6	0	0.000	0.0
20100716 00:30	20.1	20.1	20.1	85	17.5	0	0	-100000	0.0	1015.6	0	0.000	0.0
20100716 00:35	19.9	19.9	19.9	86	17.5	0	0	-100000	0.0	1015.6	0	0.000	0.0
20100716 00:40	19.9	19.9	19.9	86	17.5	0	0	-100000	0.0	1015.6	0	0.000	0.0
20100716 00:45	19.8	19.8	19.8	86	17.4	0	0	-100000	0.0	1015.7	0	0.000	0.0
20100716 00:50	19.7	19.7	19.7	86	17.3	0	0	-100000	0.0	1015.7	0	0.000	0.0
20100716 00:55	19.7	19.7	19.7	86	17.3	0	0	-100000	0.0	1015.6	0	0.000	0.0
20100716 01:00	19.6	19.6	19.6	87	17.3	0	0	-100000	0.0	1015.5	0	0.025	0.0
20100716 01:05	19.5	19.5	19.5	87	17.3	0	0	-100000	0.0	1015.6	0	0.000	0.0
20100716 01:10	19.4	19.4	19.4	87	17.2	0	2	202	0.0	1015.7	0	0.000	0.0
20100716 01:15	19.4	19.4	19.4	87	17.2	0	2	202	0.0	1015.7	0	0.000	0.0
20100716 01:20	19.3	19.3	19.3	87	17.1	0	2	202	0.0	1015.7	0	0.000	0.0
20100716 01:25	19.3	19.3	19.3	87	17.1	0	0	-100000	0.0	1015.6	0	0.000	0.0
20100716 01:30	19.2	19.2	19.2	88	17.2	0	2	202	0.0	1015.6	0	0.000	0.0
20100716 01:35	19.2	19.2	19.2	88	17.1	0	2	202	0.0	1015.6	0	0.000	0.0
20100716 01:40	19.1	19.1	19.1	88	17.1	0	2	202	0.0	1015.5	0	0.000	0.0
20100716 01:45	19.1	19.1	19.1	88	17.0	0	2	202	0.0	1015.6	0	0.000	0.0
20100716 01:50	19.0	19.0	19.0	88	17.0	0	3	202	0.0	1015.7	0	0.000	0.0
20100716 01:55	19.0	19.0	19.0	88	17.0	0	3	202	0.0	1015.6	0	0.000	0.0
20100716 02:00	18.9	18.9	18.9	88	16.9	0	2	202	0.0	1015.6	0	0.000	0.0
20100716 02:05	18.9	18.9	18.9	88	16.9	0	2	202	0.0	1015.6	0	0.000	0.0
20100716 02:10	18.9	18.9	18.9	89	17.0	0	2	202	0.0	1015.6	0	0.000	0.0
20100716 02:15	18.8	18.8	18.8	88	16.8	0	0	-100000	0.0	1015.5	0	0.000	0.0
20100716 02:20	18.8	18.8	18.8	88	16.7	0	2	202	0.0	1015.4	0	0.000	0.0
20100716 02:25	18.8	18.8	18.8	88	16.7	0	0	-100000	0.0	1015.3	0	0.000	0.0
20100716 02:30	18.7	18.7	18.7	88	16.7	0	2	202	0.0	1015.2	0	0.000	0.0
20100716 02:35	18.7	18.7	18.7	88	16.6	0	2	202	0.0	1015.2	0	0.000	0.0
20100716 02:40	18.7	18.7	18.7	88	16.6	0	0	-100000	0.0	1015.2	0	0.000	0.0
20100716 02:45	18.6	18.6	18.6	89	16.7	0	2	202	0.0	1015.1	0	0.000	0.0
20100716 02:50	18.6	18.6	18.6	89	16.7	0	0	-100000	0.0	1015.1	0	0.000	0.0
20100716 02:55	18.6	18.6	18.6	89	16.7	0	0	-100000	0.0	1015.1	0	0.000	0.0
20100716 03:00	18.6	18.6	18.6	89	16.7	0	0	-100000	0.0	1015.1	0	0.000	0.0
20100716 03:05	18.5	18.5	18.5	89	16.6	2	6	202	0.0	1015.0	0	0.000	0.0
20100716 03:10	18.3	18.3	18.3	88	16.3	0	5	202	0.0	1014.9	0	0.000	0.0
20100716 03:15	18.2	18.2	18.2	89	16.4	0	3	202	0.0	1014.9	0	0.000	0.0
20100716 03:20	18.2	18.2	18.2	89	16.3	0	2	202	0.0	1014.8	0	0.000	0.0
20100716 03:25	18.1	18.1	18.1	89	16.2	0	2	202	0.0	1014.7	0	0.000	0.0
20100716 03:30	18.1	18.1	18.1	89	16.2	0	0	-100000	0.0	1014.7	0	0.000	0.0
20100716 03:35	18.0	18.0	18.0	90	16.3	0	0	-100000	0.0	1014.8	0	0.000	0.0
20100716 03:40	18.0	18.0	18.0	90	16.3	2	5	202	0.0	1014.7	0	0.000	0.0
20100716 03:45	17.9	17.9	17.9	90	16.3	2	6	202	0.0	1014.7	0	0.000	0.0
20100716 03:50	17.9	17.9	17.9	90	16.3	0	2	202	0.0	1014.6	0	0.000	0.0
20100716 03:55	17.9	17.9	17.9	90	16.2	0	3	202	0.0	1014.5	0	0.000	0.0
20100716 04:00	17.8	17.8	17.8	90	16.2	0	0	-100000	0.0	1014.4	0	0.000	0.0
20100716 04:05	17.8	17.8	17.8	90	16.2	0	0	-100000	0.0	1014.5	0	0.000	0.0
20100716 04:10	17.8	17.8	17.8	90	16.1	0	2	202	0.0	1014.4	0	0.000	0.0
20100716 04:15	17.7	17.7	17.7	90	16.1	0	0	-100000	0.0	1014.5	0	0.000	0.0
20100716 04:20	17.6	17.6	17.6	90	15.9	0	0	-100000	0.0	1014.5	0	0.000	0.0
20100716 04:25	17.6	17.6	17.6	90	15.9	0	0	-100000	0.0	1014.6	0	0.000	0.0
20100716 04:30	17.5	17.5	17.5	90	15.8	0	0	-100000	0.0	1014.6	0	0.000	0.0
20100716 04:35	17.4	17.4	17.4	90	15.8	0	0	-100000	0.0	1014.5	0	0.000	0.0
20100716 04:40	17.4	17.4	17.4	90	15.7	0	0	-100000	0.0	1014.5	0	0.000	0.0
20100716 04:45	17.3	17.3	17.3	90	15.7	0	2	202	0.0	1014.4	0	0.000	0.0
20100716 04:50	17.3	17.3	17.3	90	15.7	0	2	202	0.0	1014.4	0	0.000	0.0
20100716 04:55	17.3	17.3	17.3	90	15.7	0	3	202	0.0	1014.4	0	0.000	0.0
20100716 05:00	17.4	17.4	17.4	91	15.9	0	3	202	0.0	1014.4	0	0.000	0.0
20100716 05:05	17.4	17.4	17.4	91	15.9	0	2	202	0.0	1014.4	0	0.000	0.0
20100716 05:10	17.4	17.4	17.4	91	15.9	0	2	202	0.0	1014.3	0	0.000	0.0
20100716 05:15	17.4	17.4	17.4	91	16.0	0	2	202	0.0	1014.3	0	0.000	0.0
20100716 05:20	17.4	17.4	17.4	91	16.0	0	0	-100000	0.0	1014.5	0	0.000	0.0
20100716 05:25	17.4	17.4	17.4	91	16.0	0	0	-100000	0.0	1014.5	0	0.000	0.0
20100716 05:30	17.4	17.4	17.4	91	15.9	0	0	-100000	0.0	1014.6	0	0.000	0.0
20100716 05:35	17.3	17.3	17.3	91	15.8	0	5	202	0.0	1014.5	1	0.000	0.0
20100716 05:40	17.4	17.4	17.4	91	15.9	0	5	202	0.0	1014.6	5	0.000	0.0
20100716 05:45	17.4	17.4	17.4	91	15.9	0	2	202	0.0	1014.6	8	0.000	0.0
20100716 05:50	17.4	17.4	17.4	91	15.9	0	2	202	0.0	1014.5	10	0.000	0.0
20100716 05:55	17.4	17.4	17.4	91	16.0	0	2	90	0.0	1014.5	13	0.000	0.0
20100716 06:00	17.4	17.4	17.4	91	16.0	0	5	90	0.0	1014.5	15	0.000	0.0
20100716 06:05	17.4	17.4	17.4	91	16.0	0	3	90	0.0	1014.7	19	0.000	0.0
20100716 06:10	17.4	17.4	17.4	91	16.0	0	5	90	0.0	1014.6	22	0.000	0.0
20100716 06:15	17.5	17.5	17.5	91	16.0	2	6	90	0.0	1014.6	24	0.000	0.0
20100716 06:20	17.6	17.6	17.6	90	15.9	2	6	90	0.0	1014.6	27	0.000	0.0
20100716 06:25	17.7	17.7	17.7	90	16.1	3	8	90	0.0	1014.6	29	0.000	0.0
20100716 06:30	17.9	17.9	17.9	90	16.2	5	8	135	0.0	1014.5	31	0.000	0.0
20100716 06:35	18.1	18.1	18.1	89	16.3	3	8	135	0.0	1014.4	32	0.000	0.0
20100716 06:40	18.3	18.3	18.3	88	16.3	2	5	135	0.0	1014.5	35	0.000	0.0
20100716 06:45	18.4	18.4	18.4	88	16.4	2	6	135	0.0	1014.5	40	0.000	0.0
20100716 06:50	18.5	18.5	18.5	88	16.5	0	5	135	0.0	1014.7	44	0.000	0.0
20100716 06:55	18.6	18.6	18.6	87	16.3	2	6	135	0.0	1014.7	58	0.000	0.0
20100716 07:00	18.7	18.7	18.7	87	16.5	5	8	135	0.0	1014.7	112	0.025	0.0
20100716 07:05	18.8	18.8	18.8	87	16.6	3	8	135	0.0	1014.6	124	0.000	0.0
20100716 07:10	19.1	19.1	19.1	86	16.7	2	5	135	0.0	1014.7	139	0.000	0.0
20100716 07:15	19.3	19.3	19.3	86	16.9	2	8	135	0.0	1014.7	152	0.000	0.0
20100716 07:20	19.6	19.6	19.6	85	17.0	2	6	135	0.0	1014.8	164	0.000	0.5
20100716 07:25	19.9	19.9	19.9	84	17.1	0	2	135	0.0	1014.7	174	0.000	0.5
20100716 07:30	20.1	20.1	20.1	83	17.1	2	6	135	0.0	1014.7	180	0.000	0.6
20100716 07:35	20.2	20.2	20.2	83	17.2	3	6	135	0.0	1014.8	184	0.000	0.7
20100716 07:40	20.4	20.4	20.4	83	17.5	2	6	135	0.0	1014.8	207	0.000	0.7
20100716 07:45	20.8	20.8	20.8	82	17.6	2	6	135	0.0	1014.8	224	0.000	0.8
20100716 07:50	21.1	21.1	21.1	81	17.7	2	8	158	0.0	1014.7	243	0.000	0.8
20100716 07:55	21.3	21.3	21.3	80	17.7	3	10	158	0.0	1014.8	257	0.000	0.9
20100716 08:00	21.4	21.4	21.4	80	17.8	3	6	158	0.0	1014.7	267	0.127	1.0
20100716 08:05	21.6	21.6	21.6	79	17.8	3	10	158	0.0	1014.9	280	0.000	1.1
20100716 08:10	21.7	21.7	21.7	78	17.7	5	10	135	0.0	1014.9	289	0.000	1.1
20100716 08:15	21.7	21.7	21.7	78	17.7	3	8	135	0.0	1014.9	229	0.000	1.2
20100716 08:20	21.7	21.7	21.7	78	17.7	3	6	135	0.0	1014.9	291	0.000	1.3
20100716 08:25	21.9	21.9	21.9	78	17.9	2	6	90	0.0	1014.9	337	0.000	1.4
20100716 08:30	22.2	22.2	22.2	77	18.0	0	5	90	0.0	1014.8	352	0.000	1.5
20100716 08:35	22.5	22.5	22.5	76	18.1	2	5	90	0.0	1014.7	362	0.000	1.6
20100716 08:40	22.7	22.7	22.7	75	18.1	0	3	90	0.0	1014.8	374	0.000	1.7
20100716 08:45	23.1	23.1	23.1	75	18.4	2	5	90	0.0	1014.8	389	0.000	1.8
20100716 08:50	23.3	23.3	23.3	74	18.4	2	5	90	0.0	1014.6	399	0.000	1.9
20100716 08:55	23.3	23.3	23.3	74	18.4	2	5	90	0.0	1014.7	414	0.000	2.1
20100716 09:00	23.4	23.4	23.4	74	18.5	2	3	90	0.0	1014.7	428	0.203	2.2
20100716 09:05	23.5	23.5	23.5	74	18.6	2	5	90	0.0	1014.9	440	0.000	2.3
20100716 09:10	23.6	23.6	23.6	73	18.5	2	8	90	0.0	1014.8	451	0.000	2.4
20100716 09:15	23.7	23.7	23.7	74	18.7	2	5	90	0.0	1014.8	467	0.000	2.6
20100716 09:20	24.0	24.0	24.8	72	18.6	3	8	112	0.0	1014.8	480	0.000	2.7
20100716 09:25	24.0	24.0	24.9	71	18.4	3	5	90	0.0	1014.8	491	0.000	2.8
20100716 09:30	24.1	24.1	24.9	71	18.5	3	6	68	0.0	1014.8	508	0.000	3.0
20100716 09:35	24.2	24.2	25.0	71	18.6	2	6	68	0.0	1014.7	519	0.000	3.1
20100716 09:40	24.4	24.4	25.3	71	18.8	2	5	68	0.0	1014.8	529	0.000	3.2
20100716 09:45	24.7	24.7	25.6	70	18.8	3	6	68	0.0	1014.7	538	0.000	3.4
20100716 09:50	25.1	25.1	26.1	69	19.0	3	6	90	0.0	1014.6	548	0.000	3.5
20100716 09:55	25.3	25.3	26.3	69	19.2	2	5	90	0.0	1014.6	563	0.000	3.7
20100716 10:00	25.3	25.3	26.4	68	19.0	2	6	90	0.0	1014.6	579	0.330	3.9
20100716 10:05	25.4	25.4	26.4	68	19.0	3	6	90	0.0	1014.5	588	0.000	4.0
20100716 10:10	25.4	25.4	26.5	68	19.1	2	6	90	0.0	1014.5	598	0.000	4.1
20100716 10:15	25.6	25.6	26.6	68	19.2	2	6	45	0.0	1014.5	606	0.000	4.3
20100716 10:20	25.6	25.6	26.7	68	19.3	3	8	68	0.0	1014.5	613	0.000	4.4
20100716 10:25	25.7	25.7	26.8	68	19.3	3	10	68	0.0	1014.5	628	0.000	4.6
20100716 10:30	25.8	25.8	27.0	68	19.5	2	5	135	0.0	1014.5	638	0.000	4.8
20100716 10:35	26.0	26.0	27.2	67	19.4	2	6	90	0.0	1014.4	643	0.000	4.9
20100716 10:40	26.4	26.4	27.7	67	19.8	2	11	90	0.0	1014.4	655	0.000	5.0
20100716 10:45	26.4	26.4	27.7	65	19.3	6	11	45	0.0	1014.4	665	0.000	5.2
20100716 10:50	26.3	26.3	27.6	66	19.5	5	11	45	0.0	1014.5	667	0.000	5.3
20100716 10:55	26.3	26.3	27.6	67	19.6	3	16	22	0.0	1014.4	678	0.000	5.5
20100716 11:00	26.2	26.2	27.5	67	19.6	5	11	22	0.0	1014.4	688	0.432	5.7
20100716 11:05	26.4	26.4	27.8	67	19.8	0	2	22	0.0	1014.5	697	0.000	5.8
20100716 11:10	26.8	26.8	28.2	66	19.9	3	6	22	0.0	1014.5	706	0.000	5.9
20100716 11:15	27.0	27.0	28.5	65	19.8	2	8	90	0.0	1014.3	714	0.000	6.0
20100716 11:20	27.4	27.4	29.0	65	20.2	3	8	45	0.0	1014.3	724	0.000	6.2
20100716 11:25	27.5	27.5	29.2	65	20.3	2	6	45	0.0	1014.2	726	0.000	6.3
20100716 11:30	27.7	27.7	29.4	64	20.2	2	8	338	0.0	1014.2	734	0.000	6.5
20100716 11:35	27.7	27.7	29.3	63	20.0	2	6	0	0.0	1014.2	745	0.000	6.7
20100716 11:40	27.6	27.6	29.3	64	20.2	3	8	22	0.0	1014.2	749	0.000	6.7
20100716 11:45	27.5	27.5	29.1	64	20.1	5	8	22	0.0	1014.2	751	0.000	6.8
20100716 11:50	27.5	27.5	29.2	65	20.3	5	11	68	0.0	1014.2	777	0.000	7.0
20100716 11:55	27.6	27.6	29.3	64	20.2	6	11	22	0.0	1014.1	777	0.000	7.1
20100716 12:00	27.8	27.8	29.4	63	20.1	5	10	22	0.0	1014.1	782	0.483	7.2
20100716 12:05	27.8	27.8	29.6	64	20.3	5	11	68	0.0	1014.2	808	0.000	7.1
20100716 12:10	28.1	28.1	29.9	63	20.3	2	5	68	0.0	1014.1	814	0.000	7.3
20100716 12:15	28.4	28.4	30.3	62	20.4	3	8	68	0.0	1014.0	759	0.000	7.0
20100716 12:20	28.5	28.5	30.5	62	20.5	6	11	90	0.0	1013.9	689	0.000	7.1
20100716 12:25	28.4	28.4	30.3	61	20.2	6	13	45	0.0	1014.0	875	0.000	6.7
20100716 12:30	28.3	28.3	30.2	63	20.5	3	10	22	0.0	1014.0	807	0.000	7.3
20100716 12:35	28.3	28.3	30.2	62	20.3	3	11	22	0.0	1013.9	852	0.000	7.9
20100716 12:40	28.6	28.6	30.6	62	20.5	3	10	22	0.0	1013.9	853	0.000	8.0
20100716 12:45	28.7	28.7	30.6	61	20.4	5	14	22	0.0	1013.9	879	0.000	7.3
20100716 12:50	28.5	28.5	30.5	62	20.5	5	11	45	0.0	1014.0	310	0.000	5.5
20100716 12:55	28.3	28.3	30.2	62	20.3	2	10	45	0.0	1013.9	318	0.000	5.8
20100716 13:00	28.6	28.6	30.6	62	20.5	6	14	315	0.0	1013.9	884	0.483	7.9
20100716 13:05	28.8	28.8	30.8	61	20.5	2	6	0	0.0	1013.8	856	0.000	8.1
20100716 13:10	28.9	28.9	30.9	60	20.4	5	10	22	0.0	1013.8	860	0.000	8.2
20100716 13:15	29.1	29.1	31.0	59	20.2	3	11	112	0.0	1013.8	299	0.000	6.9
20100716 13:20	29.1	29.1	31.2	60	20.5	5	14	112	0.0	1013.7	612	0.000	7.0
20100716 13:25	29.0	29.0	31.2	61	20.7	3	10	22	0.0	1013.6	849	0.000	8.2
20100716 13:30	29.3	29.3	31.5	60	20.7	5	10	68	0.0	1013.5	840	0.000	8.2
20100716 13:35	29.4	29.4	31.6	59	20.6	3	10	112	0.0	1013.5	845	0.000	8.3
20100716 13:40	29.6	29.6	31.8	59	20.7	5	11	68	0.0	1013.6	859	0.000	8.3
20100716 13:45	29.7	29.7	32.1	59	20.8	3	10	68	0.0	1013.5	847	0.000	8.2
20100716 13:50	29.8	29.8	31.9	57	20.3	6	16	22	0.0	1013.4	858	0.000	8.2
20100716 13:55	29.8	29.8	32.1	58	20.7	6	11	22	0.0	1013.3	861	0.000	7.5
20100716 14:00	29.6	29.6	31.6	57	20.2	6	11	68	0.0	1013.3	227	0.533	5.6
20100716 14:05	29.7	29.7	31.8	58	20.5	2	5	45	0.0	1013.3	849	0.000	7.8
20100716 14:10	29.9	29.9	32.2	58	20.7	8	14	68	0.0	1013.3	838	0.000	7.7
20100716 14:15	30.1	30.1	32.6	58	20.9	2	8	68	0.0	1013.3	866	0.000	7.7
20100716 14:20	30.3	30.3	32.7	56	20.6	6	11	68	0.0	1013.2	803	0.000	6.8
20100716 14:25	30.1	30.1	32.4	57	20.6	5	10	45	0.0	1013.2	414	0.000	6.3
20100716 14:30	30.0	30.0	32.4	58	20.8	5	11	45	0.0	1013.2	835	0.000	7.5
20100716 14:35	30.2	30.2	32.7	58	21.0	6	11	45	0.0	1013.1	823	0.000	7.4
20100716 14:40	30.2	30.2	32.7	57	20.7	5	10	45	0.0	1013.0	821	0.000	7.4
20100716 14:45	30.3	30.3	32.8	57	20.8	5	10	45	0.0	1013.1	794	0.000	7.3
20100716 14:50	30.2	30.2	32.7	57	20.7	8	18	45	0.0	1012.8	777	0.000	7.1
20100716 14:55	30.2	30.2	32.5	56	20.5	6	11	68	0.0	1013.0	782	0.000	7.1
20100716 15:00	30.3	30.3	32.9	57	20.8	10	19	68	0.0	1012.8	750	0.559	6.4
20100716 15:05	30.3	30.3	32.7	56	20.6	6	11	68	0.0	1012.8	782	0.000	6.8
20100716 15:10	30.3	30.3	32.7	56	20.6	8	16	45	0.0	1012.8	764	0.000	6.7
20100716 15:15	30.3	30.3	32.7	56	20.6	5	14	22	0.0	1012.7	755	0.000	6.6
20100716 15:20	30.4	30.4	32.9	56	20.7	10	18	22	0.0	1012.8	745	0.000	6.3
20100716 15:25	30.6	30.6	33.8	59	21.7	8	16	68	0.0	1012.8	757	0.000	6.1
20100716 15:30	29.9	29.9	32.2	58	20.7	8	16	45	0.0	1012.8	770	0.000	6.1
20100716 15:35	29.6	29.6	31.8	59	20.7	6	14	45	0.0	1012.8	641	0.000	5.6
20100716 15:40	29.6	29.6	31.9	59	20.7	13	19	45	0.0	1012.9	709	0.000	5.7
20100716 15:45	29.9	29.9	32.2	58	20.7	6	18	45	0.0	1012.8	741	0.000	5.7
20100716 15:50	30.2	30.2	32.6	57	20.7	6	19	22	0.0	1012.7	505	0.000	4.6
20100716 15:55	30.1	30.1	32.5	57	20.6	8	14	68	0.0	1012.7	652	0.000	4.9
20100716 16:00	30.1	30.1	32.5	57	20.6	6	16	45	0.0	1012.7	584	0.508	4.9
20100716 16:05	30.3	30.3	32.6	56	20.5	8	16	45	0.0	1012.8	667	0.000	5.0
20100716 16:10	30.4	30.4	32.9	56	20.7	11	18	22	0.0	1012.7	650	0.000	4.8
20100716 16:15	30.6	30.6	32.7	54	20.2	8	11	45	0.0	1012.8	636	0.000	4.6
20100716 16:20	30.6	30.6	33.0	55	20.5	5	14	68	0.0	1012.7	637	0.000	4.5
20100716 16:25	30.8	30.8	32.8	53	20.1	8	16	22	0.0	1012.7	634	0.000	4.3
20100716 16:30	30.8	30.8	32.8	53	20.1	5	11	45	0.0	1012.8	169	0.000	3.3
20100716 16:35	30.7	30.7	32.6	53	20.0	6	11	45	0.0	1012.7	597	0.000	4.0
20100716 16:40	30.6	30.6	32.7	54	20.2	5	11	45	0.0	1012.7	598	0.000	3.9
20100716 16:45	30.8	30.8	32.8	53	20.1	6	16	45	0.0	1012.7	583	0.000	3.8
20100716 16:50	30.8	30.8	32.9	53	20.1	8	14	68	0.0	1012.7	551	0.000	3.5
20100716 16:55	30.9	30.9	33.0	53	20.2	8	14	68	0.0	1012.6	543	0.000	3.4
20100716 17:00	30.9	30.9	32.8	52	19.9	6	11	45	0.0	1012.6	542	0.457	3.3
20100716 17:05	30.9	30.9	33.1	53	20.2	5	11	45	0.0	1012.5	531	0.000	3.1
20100716 17:10	31.1	31.1	33.5	54	20.6	5	10	68	0.0	1012.3	512	0.000	3.0
20100716 17:15	31.1	31.1	33.7	54	20.7	10	16	68	0.0	1012.3	501	0.000	2.8
20100716 17:20	31.1	31.1	33.5	54	20.6	8	16	68	0.0	1012.3	498	0.000	2.7
20100716 17:25	30.9	30.9	33.2	54	20.5	10	16	68	0.0	1012.3	471	0.000	2.5
20100716 17:30	30.8	30.8	33.3	55	20.7	5	11	68	0.0	1012.3	465	0.000	2.4
20100716 17:35	30.8	30.8	33.1	54	20.4	5	10	68	0.0	1012.2	450	0.000	2.3
20100716 17:40	30.8	30.8	33.1	54	20.4	8	16	68	0.0	1012.4	431	0.000	2.2
20100716 17:45	30.8	30.8	33.1	54	20.4	6	11	68	0.0	1012.3	422	0.000	2.0
20100716 17:50	30.8	30.8	33.4	55	20.7	6	11	68	0.0	1012.3	395	0.000	1.9
20100716 17:55	30.8	30.8	33.1	54	20.4	6	14	68	0.0	1012.4	400	0.000	1.8
20100716 18:00	30.8	30.8	32.8	53	20.1	5	10	68	0.0	1012.4	382	0.356	1.7
20100716 18:05	30.8	30.8	33.0	54	20.4	6	11	68	0.0	1012.1	368	0.000	1.6
20100716 18:10	30.7	30.7	32.7	53	20.0	6	11	45	0.0	1012.1	357	0.000	1.5
20100716 18:15	30.6	30.6	32.7	54	20.2	5	10	68	0.0	1012.1	348	0.000	1.4
20100716 18:20	30.6	30.6	32.7	54	20.2	5	8	90	0.0	1012.1	332	0.000	1.3
20100716 18:25	30.7	30.7	32.8	54	20.3	3	10	90	0.0	1012.1	315	0.000	1.2
20100716 18:30	30.7	30.7	32.8	54	20.3	6	11	68	0.0	1011.9	307	0.000	1.1
20100716 18:35	30.6	30.6	32.7	54	20.2	6	11	45	0.0	1011.9	292	0.000	1.1
20100716 18:40	30.6	30.6	32.7	54	20.2	5	10	68	0.0	1012.0	282	0.000	1.0
20100716 18:45	30.6	30.6	32.7	54	20.2	6	8	68	0.0	1012.0	269	0.000	0.9
20100716 18:50	30.5	30.5	32.6	54	20.1	5	10	68	0.0	1012.1	240	0.000	0.8
20100716 18:55	30.4	30.4	32.5	54	20.1	5	8	45	0.0	1012.0	243	0.000	0.8
20100716 19:00	30.3	30.3	32.5	55	20.3	5	8	45	0.0	1012.1	222	0.254	0.7
20100716 19:05	30.3	30.3	32.4	55	20.2	3	8	68	0.0	1011.7	210	0.000	0.6
20100716 19:10	30.3	30.3	32.4	55	20.2	3	6	68	0.0	1011.7	208	0.000	0.6
20100716 19:15	30.2	30.2	32.3	55	20.2	2	5	68	0.0	1011.8	195	0.000	0.5
20100716 19:20	30.2	30.2	32.4	56	20.4	2	5	68	0.0	1011.9	193	0.000	0.5
20100716 19:25	30.0	30.0	32.3	57	20.5	3	6	68	0.0	1011.9	103	0.000	0.2
20100716 19:30	29.8	29.8	32.0	57	20.4	3	6	68	0.0	1011.8	80	0.000	0.0
20100716 19:35	29.7	29.7	31.8	58	20.5	2	5	68	0.0	1011.9	73	0.000	0.0
20100716 19:40	29.5	29.5	31.7	59	20.6	2	5	68	0.0	1011.9	77	0.000	0.0
20100716 19:45	29.3	29.3	31.6	60	20.7	0	3	68	0.0	1011.8	74	0.000	0.0
20100716 19:50	29.2	29.2	31.6	61	20.9	0	3	68	0.0	1011.7	69	0.000	0.0
20100716 19:55	29.2	29.2	31.3	60	20.6	0	2	68	0.0	1011.9	71	0.000	0.0
20100716 20:00	29.1	29.1	31.4	61	20.8	0	2	68	0.0	1012.1	75	0.102	0.0
20100716 20:05	29.1	29.1	31.4	62	21.0	0	2	68	0.0	1011.8	71	0.000	0.0
20100716 20:10	29.0	29.0	31.3	62	21.0	0	0	-100000	0.0	1011.8	73	0.000	0.0
20100716 20:15	28.9	28.9	30.9	60	20.4	0	2	68	0.0	1011.9	71	0.000	0.0
20100716 20:20	29.0	29.0	31.2	61	20.7	0	2	68	0.0	1011.9	60	0.000	0.0
20100716 20:25	29.0	29.0	31.3	62	21.0	0	0	-100000	0.0	1011.8	55	0.000	0.0
20100716 20:30	28.9	28.9	31.4	63	21.2	0	0	-100000	0.0	1012.0	42	0.000	0.0
20100716 20:35	28.9	28.9	31.4	63	21.2	0	0	-100000	0.0	1012.2	29	0.000	0.0
20100716 20:40	28.8	28.8	31.2	63	21.1	0	0	-100000	0.0	1012.0	23	0.000	0.0
20100716 20:45	28.7	28.7	31.0	63	21.0	0	0	-100000	0.0	1012.2	17	0.000	0.0
20100716 20:50	28.7	28.7	30.9	63	20.9	0	0	-100000	0.0	1012.3	11	0.000	0.0
20100716 20:55	28.5	28.5	30.8	64	21.0	0	0	-100000	0.0	1012.5	8	0.000	0.0
20100716 21:00	28.4	28.4	30.5	63	20.7	0	2	68	0.0	1012.6	5	0.025	0.0
20100716 21:05	28.3	28.3	30.6	65	21.1	0	2	68	0.0	1012.2	0	0.000	0.0
20100716 21:10	28.2	28.2	30.4	65	21.0	0	0	-100000	0.0	1012.2	0	0.000	0.0
20100716 21:15	28.1	28.1	30.2	65	20.9	0	0	-100000	0.0	1012.1	0	0.000	0.0
20100716 21:20	28.0	28.0	30.2	66	21.0	0	0	-100000	0.0	1012.3	0	0.000	0.0
20100716 21:25	27.9	27.9	30.0	66	20.9	0	0	-100000	0.0	1012.3	0	0.000	0.0
20100716 21:30	27.8	27.8	29.9	67	21.1	0	0	-100000	0.0	1012.3	0	0.000	0.0
20100716 21:35	27.7	27.7	29.6	66	20.7	0	2	68	0.0	1012.5	0	0.000	0.0
20100716 21:40	27.6	27.6	29.7	68	21.2	0	2	68	0.0	1012.5	0	0.000	0.0
20100716 21:45	27.6	27.6	29.7	69	21.3	0	2	68	0.0	1012.5	0	0.000	0.0
20100716 21:50	27.5	27.5	29.6	69	21.3	0	2	68	0.0	1012.4	0	0.000	0.0
20100716 21:55	27.5	27.5	29.5	68	21.1	0	2	68	0.0	1012.3	0	0.000	0.0
20100716 22:00	27.4	27.4	29.6	70	21.5	0	2	68	0.0	1012.4	0	0.000	0.0
20100716 22:05	27.3	27.3	29.6	72	21.8	0	3	68	0.0	1012.4	0	0.000	0.0
20100716 22:10	27.2	27.2	29.5	74	22.1	0	2	68	0.0	1012.3	0	0.000	0.0
20100716 22:15	26.9	26.9	29.1	74	21.9	0	2	68	0.0	1012.5	0	0.000	0.0
20100716 22:20	26.8	26.8	28.9	75	22.0	0	0	-100000	0.0	1012.6	0	0.000	0.0
20100716 22:25	26.6	26.6	28.4	75	21.7	0	0	-100000	0.0	1012.5	0	0.000	0.0
20100716 22:30	26.4	26.4	28.3	76	21.9	0	0	-100000	0.0	1012.6	0	0.000	0.0
20100716 22:35	26.3	26.3	28.1	76	21.8	0	0	-100000	0.0	1012.6	0	0.000	0.0
20100716 22:40	26.2	26.2	28.0	77	21.9	0	0	-100000	0.0	1012.6	0	0.000	0.0
20100716 22:45	26.2	26.2	27.8	76	21.6	0	0	-100000	0.0	1012.6	0	0.000	0.0
20100716 22:50	26.1	26.1	27.7	76	21.5	0	2	68	0.0	1012.6	0	0.000	0.0
20100716 22:55	26.1	26.1	27.6	76	21.5	0	2	68	0.0	1012.6	0	0.000	0.0
20100716 23:00	26.0	26.0	27.5	76	21.4	0	2	68	0.0	1012.5	0	0.025	0.0
20100716 23:05	25.9	25.9	27.5	77	21.6	2	6	68	0.0	1012.5	0	0.000	0.0
20100716 23:10	25.9	25.9	27.4	76	21.4	2	5	68	0.0	1012.5	0	0.000	0.0
20100716 23:15	25.8	25.8	27.3	77	21.5	0	2	68	0.0	1012.5	0	0.000	0.0
20100716 23:20	25.7	25.7	27.0	76	21.2	2	5	68	0.0	1012.5	0	0.000	0.0
20100716 23:25	25.6	25.6	26.8	76	21.0	5	8	68	0.0	1012.5	0	0.000	0.0
20100716 23:30	25.4	25.4	26.5	73	20.2	5	8	270	0.0	1012.5	0	0.000	0.0
20100716 23:35	25.3	25.3	26.4	73	20.1	5	8	270	0.0	1012.6	0	0.000	0.0
20100716 23:40	25.2	25.2	26.3	71	19.6	5	11	270	0.0	1012.7	0	0.000	0.0
20100716 23:45	25.2	25.2	26.3	71	19.6	5	8	292	0.0	1013.0	0	0.000	0.0
20100716 23:50	25.1	25.1	26.0	72	19.6	5	8	270	0.0	1012.8	0	0.000	0.0
20100716 23:55	24.8	24.8	25.8	72	19.4	3	8	270	0.0	1012.8	0	0.000	0.0



Please note the license to use and transfer of this data:
http://creativecommons.org/licenses/by-nc-sa/3.0/deed.en

Bitte beachten sie die Lizenz zur Verwertung und Weitergabe der Daten:
http://creativecommons.org/licenses/by-nc-sa/3.0/deed.de

zurück zur Übersicht der Archivdaten (Monats und Tagesdaten)

Cookies helfen bei der Bereitstellung von Inhalten. Durch die Nutzung dieser Seiten erklärst du dich damit einverstanden, dass Cookies auf deinem Rechner gespeichert werden. Weitere Information